createdAt,value
2023-02-22T00:01:47.584Z,8.21
2023-02-22T00:04:16.100Z,8.18
2023-02-22T00:06:42.777Z,8.23
2023-02-22T00:09:10.380Z,8.12
2023-02-22T00:11:38.654Z,8.14
2023-02-22T00:14:05.776Z,8.17
2023-02-22T00:16:39.589Z,8.10
2023-02-22T00:19:06.364Z,8.04
2023-02-22T00:21:33.137Z,8.04
2023-02-22T00:23:59.832Z,8.05
2023-02-22T00:26:26.968Z,8.07
2023-02-22T00:28:54.525Z,8.07
2023-02-22T00:31:22.055Z,8.05
2023-02-22T00:33:48.753Z,7.99
2023-02-22T00:36:15.413Z,8.07
2023-02-22T00:38:42.518Z,8.08
2023-02-22T00:41:10.433Z,8.02
2023-02-22T00:43:37.163Z,8.05
2023-02-22T00:46:04.018Z,8.10
2023-02-22T00:48:31.053Z,8.06
2023-02-22T00:50:57.753Z,8.04
2023-02-22T00:53:25.980Z,8.00
2023-02-22T00:55:53.071Z,8.01
2023-02-22T00:58:20.454Z,8.04
2023-02-22T01:00:47.580Z,8.05
2023-02-22T01:03:19.261Z,8.04
2023-02-22T01:05:47.143Z,8.06
2023-02-22T01:08:15.817Z,8.06
2023-02-22T01:10:43.405Z,8.07
2023-02-22T01:13:12.474Z,8.12
2023-02-22T01:15:42.010Z,8.12
2023-02-22T01:18:09.816Z,8.14
2023-02-22T01:20:37.050Z,8.14
2023-02-22T01:23:07.030Z,8.13
2023-02-22T01:25:35.118Z,8.14
2023-02-22T01:28:04.792Z,8.13
2023-02-22T01:30:33.648Z,8.12
2023-02-22T01:33:02.763Z,8.10
2023-02-22T01:35:34.623Z,8.09
2023-02-22T01:38:01.558Z,8.06
2023-02-22T01:40:42.053Z,8.03
2023-02-22T01:43:34.952Z,8.02
2023-02-22T01:46:01.562Z,8.01
2023-02-22T01:48:39.872Z,8.01
2023-02-22T01:51:12.494Z,7.99
2023-02-22T01:54:06.028Z,7.90
2023-02-22T01:56:36.514Z,7.88
2023-02-22T01:59:08.472Z,7.79
2023-02-22T02:01:40.323Z,7.72
2023-02-22T02:04:10.940Z,7.76
2023-02-22T02:06:38.689Z,7.75
2023-02-22T02:09:19.248Z,7.72
2023-02-22T02:11:46.912Z,7.66
2023-02-22T02:14:14.385Z,7.69
2023-02-22T02:16:45.961Z,7.68
2023-02-22T02:19:30.905Z,7.59
2023-02-22T02:22:25.486Z,7.56
2023-02-22T02:25:24.515Z,7.53
2023-02-22T02:28:05.984Z,7.50
2023-02-22T02:30:41.886Z,7.48
2023-02-22T02:33:17.397Z,7.41
2023-02-22T02:35:56.038Z,7.40
2023-02-22T02:38:34.092Z,7.33
2023-02-22T02:41:10.898Z,7.36
2023-02-22T02:43:51.974Z,7.37
2023-02-22T02:46:26.417Z,7.35
2023-02-22T02:48:57.743Z,7.31
2023-02-22T02:51:31.087Z,7.27
2023-02-22T02:53:58.511Z,7.23
2023-02-22T02:56:25.512Z,7.22
2023-02-22T02:58:53.936Z,7.19
2023-02-22T03:01:25.899Z,7.10
2023-02-22T03:04:20.497Z,7.04
2023-02-22T03:06:49.980Z,6.99
2023-02-22T03:09:25.810Z,6.93
2023-02-22T03:12:07.970Z,6.87
2023-02-22T03:15:00.407Z,6.81
2023-02-22T03:17:51.219Z,6.77
2023-02-22T03:20:31.587Z,6.75
2023-02-22T03:23:11.194Z,6.74
2023-02-22T03:25:43.528Z,6.72
2023-02-22T03:28:14.313Z,6.72
2023-02-22T03:31:04.459Z,6.69
2023-02-22T03:33:41.730Z,6.66
2023-02-22T03:36:21.853Z,6.62
2023-02-22T03:38:50.096Z,6.66
2023-02-22T03:41:24.079Z,6.66
2023-02-22T03:43:56.342Z,6.72
2023-02-22T03:46:24.285Z,6.75
2023-02-22T03:49:09.398Z,6.74
2023-02-22T03:51:36.700Z,6.80
2023-02-22T03:54:04.761Z,6.77
2023-02-22T03:56:47.182Z,6.75
2023-02-22T03:59:14.776Z,6.77
2023-02-22T04:01:41.436Z,6.84
2023-02-22T04:04:08.274Z,6.84
2023-02-22T04:06:34.903Z,6.83
2023-02-22T04:09:01.577Z,6.85
2023-02-22T04:11:28.480Z,6.86
2023-02-22T04:13:55.144Z,6.87
2023-02-22T04:16:21.820Z,6.82
2023-02-22T04:18:48.418Z,6.73
2023-02-22T04:21:15.255Z,6.69
2023-02-22T04:23:42.034Z,6.72
2023-02-22T04:26:08.677Z,6.65
2023-02-22T04:28:35.314Z,6.56
2023-02-22T04:31:01.987Z,6.64
2023-02-22T04:33:28.559Z,6.69
2023-02-22T04:35:57.782Z,6.68
2023-02-22T04:38:26.142Z,6.71
2023-02-22T04:40:54.101Z,6.75
2023-02-22T04:43:20.799Z,6.75
2023-02-22T04:45:47.575Z,6.81
2023-02-22T04:48:14.211Z,6.83
2023-02-22T04:50:41.022Z,6.82
2023-02-22T04:53:07.708Z,6.78
2023-02-22T04:55:34.345Z,6.83
2023-02-22T04:58:01.106Z,6.84
2023-02-22T05:00:27.978Z,6.84
2023-02-22T05:02:54.636Z,6.79
2023-02-22T05:05:22.137Z,6.91
2023-02-22T05:07:49.687Z,6.92
2023-02-22T05:10:17.049Z,6.87
2023-02-22T05:12:43.716Z,6.79
2023-02-22T05:15:11.083Z,6.82
2023-02-22T05:17:37.669Z,6.84
2023-02-22T05:20:05.638Z,6.81
2023-02-22T05:22:32.308Z,6.76
2023-02-22T05:24:58.892Z,6.73
2023-02-22T05:27:25.546Z,6.70
2023-02-22T05:29:52.158Z,6.64
2023-02-22T05:32:18.834Z,6.63
2023-02-22T05:34:45.741Z,6.56
2023-02-22T05:37:12.411Z,6.57
2023-02-22T05:39:39.314Z,6.55
2023-02-22T05:42:05.979Z,6.48
2023-02-22T05:44:32.623Z,6.46
2023-02-22T05:46:59.244Z,6.41
2023-02-22T05:49:25.891Z,6.33
2023-02-22T05:51:52.506Z,6.36
2023-02-22T05:54:19.119Z,6.37
2023-02-22T05:56:45.729Z,6.30
2023-02-22T05:59:12.303Z,6.32
2023-02-22T06:01:38.877Z,6.20
2023-02-22T06:04:05.616Z,6.21
2023-02-22T06:06:32.243Z,6.24
2023-02-22T06:08:58.945Z,6.28
2023-02-22T06:11:25.631Z,6.34
2023-02-22T06:13:53.610Z,6.25
2023-02-22T06:16:21.901Z,6.22
2023-02-22T06:18:49.022Z,6.15
2023-02-22T06:21:15.960Z,6.05
2023-02-22T06:23:42.962Z,6.07
2023-02-22T06:26:09.851Z,6.06
2023-02-22T06:28:36.823Z,6.06
2023-02-22T06:31:03.798Z,6.03
2023-02-22T06:33:30.553Z,5.98
2023-02-22T06:35:57.210Z,6.01
2023-02-22T06:38:25.389Z,5.98
2023-02-22T06:40:52.175Z,6.03
2023-02-22T06:43:19.007Z,5.90
2023-02-22T06:45:45.800Z,5.94
2023-02-22T06:48:12.925Z,5.84
2023-02-22T06:50:39.628Z,5.76
2023-02-22T06:53:06.410Z,5.74
2023-02-22T06:55:34.823Z,5.71
2023-02-22T06:58:02.662Z,5.73
2023-02-22T07:00:31.015Z,5.79
2023-02-22T07:02:59.112Z,5.68
2023-02-22T07:05:27.087Z,5.71
2023-02-22T07:07:55.598Z,5.65
2023-02-22T07:10:26.631Z,5.60
2023-02-22T07:12:53.788Z,5.72
2023-02-22T07:15:24.909Z,5.78
2023-02-22T07:17:52.611Z,5.69
2023-02-22T07:20:20.849Z,5.76
2023-02-22T07:22:48.849Z,5.80
2023-02-22T07:25:15.690Z,5.84
2023-02-22T07:27:43.313Z,5.90
2023-02-22T07:30:28.063Z,5.94
2023-02-22T07:32:55.631Z,5.92
2023-02-22T07:35:25.773Z,5.97
2023-02-22T07:37:55.760Z,5.99
2023-02-22T07:40:24.059Z,5.98
2023-02-22T07:43:02.167Z,5.98
2023-02-22T07:45:31.537Z,6.04
2023-02-22T07:47:58.629Z,6.04
2023-02-22T07:50:26.776Z,6.02
2023-02-22T07:52:56.260Z,6.08
2023-02-22T07:55:24.216Z,6.08
2023-02-22T07:57:52.696Z,6.13
2023-02-22T08:00:28.398Z,6.16
2023-02-22T08:02:55.660Z,6.15
2023-02-22T08:05:24.755Z,6.13
2023-02-22T08:07:51.516Z,6.15
2023-02-22T08:10:20.108Z,6.17
2023-02-22T08:12:46.828Z,6.18
2023-02-22T08:15:19.674Z,6.20
2023-02-22T08:17:46.297Z,6.21
2023-02-22T08:20:13.641Z,6.32
2023-02-22T08:22:43.395Z,6.33
2023-02-22T08:25:10.333Z,6.28
2023-02-22T08:27:37.027Z,6.37
2023-02-22T08:30:04.463Z,6.43
2023-02-22T08:32:31.229Z,6.45
2023-02-22T08:34:57.962Z,6.55
2023-02-22T08:37:24.602Z,6.62
2023-02-22T08:39:53.698Z,6.59
2023-02-22T08:42:20.291Z,6.67
2023-02-22T08:44:46.989Z,6.77
2023-02-22T08:47:14.118Z,6.64
2023-02-22T08:49:42.199Z,6.75
2023-02-22T08:52:09.364Z,6.84
2023-02-22T08:54:36.143Z,6.73
2023-02-22T08:57:02.807Z,6.75
2023-02-22T08:59:29.550Z,6.80
2023-02-22T09:01:56.170Z,6.96
2023-02-22T09:04:22.782Z,6.98
2023-02-22T09:06:51.885Z,7.05
2023-02-22T09:09:21.436Z,7.02
2023-02-22T09:11:48.510Z,7.11
2023-02-22T09:14:16.559Z,7.10
2023-02-22T09:16:45.351Z,7.20
2023-02-22T09:19:12.430Z,7.28
2023-02-22T09:21:40.364Z,7.45
2023-02-22T09:24:10.946Z,7.42
2023-02-22T09:26:47.318Z,7.37
2023-02-22T09:29:14.289Z,7.52
2023-02-22T09:31:41.754Z,7.70
2023-02-22T09:34:15.480Z,7.63
2023-02-22T09:36:43.627Z,7.65
2023-02-22T09:39:11.480Z,7.37
2023-02-22T09:41:50.405Z,7.52
2023-02-22T09:44:36.278Z,7.80
2023-02-22T09:47:04.647Z,8.05
2023-02-22T09:49:39.880Z,8.19
2023-02-22T09:52:06.602Z,8.20
2023-02-22T09:55:05.671Z,8.07
2023-02-22T09:57:37.082Z,8.20
2023-02-22T10:00:13.614Z,8.34
2023-02-22T10:03:01.427Z,8.33
2023-02-22T10:05:37.651Z,8.45
2023-02-22T10:08:10.269Z,8.21
2023-02-22T10:10:41.218Z,8.45
2023-02-22T10:13:27.250Z,8.50
2023-02-22T10:16:10.848Z,8.68
2023-02-22T10:18:40.260Z,8.77
2023-02-22T10:21:13.170Z,8.73
2023-02-22T10:23:49.120Z,8.82
2023-02-22T10:26:22.538Z,8.84
2023-02-22T10:29:19.471Z,8.68
2023-02-22T10:31:52.061Z,8.83
2023-02-22T10:34:24.985Z,8.92
2023-02-22T10:36:59.349Z,9.03
2023-02-22T10:39:35.076Z,9.15
2023-02-22T10:42:08.464Z,9.15
2023-02-22T10:44:36.151Z,9.11
2023-02-22T10:47:06.425Z,9.14
2023-02-22T10:49:39.210Z,9.04
2023-02-22T10:52:19.444Z,9.27
2023-02-22T10:54:50.438Z,9.47
2023-02-22T10:57:22.956Z,9.59
2023-02-22T10:59:52.079Z,9.66
2023-02-22T11:02:30.834Z,9.84
2023-02-22T11:05:00.981Z,10.05
2023-02-22T11:07:29.664Z,10.19
2023-02-22T11:10:05.653Z,10.21
2023-02-22T11:12:42.413Z,10.28
2023-02-22T11:15:22.367Z,10.08
2023-02-22T11:17:52.441Z,10.38
2023-02-22T11:20:25.508Z,10.63
2023-02-22T11:22:54.798Z,10.55
2023-02-22T11:25:27.270Z,10.84
2023-02-22T11:27:54.688Z,11.00
2023-02-22T11:30:33.142Z,11.06
2023-02-22T11:33:06.439Z,11.25
2023-02-22T11:35:37.766Z,11.44
2023-02-22T11:38:28.906Z,11.65
2023-02-22T11:41:08.151Z,11.77
2023-02-22T11:43:35.456Z,11.78
2023-02-22T11:46:18.808Z,11.84
2023-02-22T11:49:13.058Z,11.95
2023-02-22T11:52:01.302Z,12.09
2023-02-22T11:54:36.831Z,12.21
2023-02-22T11:57:22.352Z,12.28
2023-02-22T12:00:12.320Z,12.31
2023-02-22T12:02:59.150Z,12.53
2023-02-22T12:05:42.736Z,12.59
2023-02-22T12:08:36.668Z,12.66
2023-02-22T12:11:25.199Z,12.82
2023-02-22T12:14:19.277Z,13.01
2023-02-22T12:17:19.674Z,13.18
2023-02-22T12:19:53.471Z,13.35
2023-02-22T12:22:33.538Z,13.48
2023-02-22T12:25:16.191Z,13.25
2023-02-22T12:27:49.318Z,13.45
2023-02-22T12:30:34.176Z,13.58
2023-02-22T12:33:07.069Z,13.86
2023-02-22T12:35:37.666Z,14.01
2023-02-22T12:38:18.220Z,14.07
2023-02-22T12:40:57.254Z,14.26
2023-02-22T12:44:20.311Z,14.29
2023-02-22T12:46:53.424Z,14.31
2023-02-22T12:49:47.777Z,14.32
2023-02-22T12:52:25.339Z,14.24
2023-02-22T12:55:25.329Z,14.24
2023-02-22T12:58:21.792Z,14.22
2023-02-22T13:00:51.278Z,14.36
2023-02-22T13:03:26.963Z,14.58
2023-02-22T13:06:23.210Z,14.67
2023-02-22T13:09:16.950Z,14.77
2023-02-22T13:12:13.000Z,14.73
2023-02-22T13:14:59.019Z,14.74
2023-02-22T13:17:44.208Z,14.74
2023-02-22T13:20:33.296Z,14.90
2023-02-22T13:23:05.496Z,14.93
2023-02-22T13:25:39.042Z,15.09
2023-02-22T13:28:21.818Z,15.13
2023-02-22T13:31:03.756Z,15.02
2023-02-22T13:33:33.194Z,15.12
2023-02-22T13:36:19.981Z,15.18
2023-02-22T13:39:20.680Z,15.28
2023-02-22T13:41:52.260Z,15.32
2023-02-22T13:44:27.775Z,15.28
2023-02-22T13:47:07.886Z,15.39
2023-02-22T13:50:06.407Z,15.50
2023-02-22T13:52:38.971Z,15.63
2023-02-22T13:55:14.988Z,15.70
2023-02-22T13:57:51.801Z,15.67
2023-02-22T14:00:23.092Z,15.38
2023-02-22T14:02:59.052Z,14.82
2023-02-22T14:05:36.397Z,14.81
2023-02-22T14:08:03.657Z,14.90
2023-02-22T14:10:48.458Z,14.86
2023-02-22T14:13:17.792Z,14.97
2023-02-22T14:16:02.908Z,14.95
2023-02-22T14:18:44.791Z,14.88
2023-02-22T14:21:17.370Z,15.14
2023-02-22T14:23:46.115Z,15.19
2023-02-22T14:26:29.830Z,15.32
2023-02-22T14:29:02.940Z,15.05
2023-02-22T14:31:37.495Z,15.22
2023-02-22T14:34:06.409Z,15.30
2023-02-22T14:36:41.863Z,15.32
2023-02-22T14:39:14.226Z,15.32
2023-02-22T14:41:47.964Z,15.44
2023-02-22T14:44:21.117Z,15.39
2023-02-22T14:46:50.145Z,15.41
2023-02-22T14:49:21.238Z,15.30
2023-02-22T14:51:58.622Z,15.24
2023-02-22T14:55:05.832Z,15.14
2023-02-22T14:57:46.390Z,15.17
2023-02-22T15:00:22.716Z,15.03
2023-02-22T15:02:53.692Z,15.06
2023-02-22T15:05:20.962Z,14.97
2023-02-22T15:07:54.444Z,14.96
2023-02-22T15:10:26.111Z,14.89
2023-02-22T15:13:09.130Z,14.78
2023-02-22T15:15:47.619Z,14.72
2023-02-22T15:18:43.422Z,14.61
2023-02-22T15:21:13.550Z,14.65
2023-02-22T15:23:56.413Z,14.43
2023-02-22T15:26:51.851Z,14.43
2023-02-22T15:29:26.040Z,14.36
2023-02-22T15:31:56.463Z,14.33
2023-02-22T15:34:33.369Z,14.32
2023-02-22T15:37:22.374Z,14.16
2023-02-22T15:39:49.110Z,14.22
2023-02-22T15:42:21.123Z,14.20
2023-02-22T15:44:52.474Z,14.11
2023-02-22T15:47:22.472Z,14.09
2023-02-22T15:50:17.003Z,14.02
2023-02-22T15:52:53.286Z,13.88
2023-02-22T15:55:25.700Z,13.96
2023-02-22T15:57:53.120Z,13.94
2023-02-22T16:00:36.145Z,13.92
2023-02-22T16:03:06.787Z,13.86
2023-02-22T16:05:46.714Z,13.78
2023-02-22T16:08:21.704Z,13.68
2023-02-22T16:11:15.029Z,13.60
2023-02-22T16:13:42.870Z,13.53
2023-02-22T16:16:22.403Z,13.49
2023-02-22T16:18:50.632Z,13.49
2023-02-22T16:21:21.691Z,13.43
2023-02-22T16:23:55.983Z,13.42
2023-02-22T16:26:35.040Z,13.29
2023-02-22T16:29:08.234Z,13.15
2023-02-22T16:31:37.319Z,13.11
2023-02-22T16:34:06.910Z,13.03
2023-02-22T16:36:46.318Z,12.92
2023-02-22T16:39:29.570Z,12.83
2023-02-22T16:42:01.987Z,12.79
2023-02-22T16:44:28.970Z,12.77
2023-02-22T16:46:59.391Z,12.76
2023-02-22T16:49:26.800Z,12.68
2023-02-22T16:51:59.898Z,12.64
2023-02-22T16:54:30.017Z,12.51
2023-02-22T16:57:00.372Z,12.44
2023-02-22T16:59:27.052Z,12.43
2023-02-22T17:01:53.899Z,12.31
2023-02-22T17:04:26.607Z,12.28
2023-02-22T17:06:53.557Z,12.23
2023-02-22T17:09:20.264Z,12.16
2023-02-22T17:11:50.263Z,12.09
2023-02-22T17:14:19.371Z,12.02
2023-02-22T17:16:48.753Z,11.93
2023-02-22T17:19:16.458Z,11.79
2023-02-22T17:21:43.382Z,11.72
2023-02-22T17:24:14.821Z,11.68
2023-02-22T17:26:42.003Z,11.66
2023-02-22T17:29:08.719Z,11.58
2023-02-22T17:31:35.534Z,11.51
2023-02-22T17:34:04.735Z,11.43
2023-02-22T17:36:33.381Z,11.31
2023-02-22T17:39:00.586Z,11.17
2023-02-22T17:41:27.247Z,11.07
2023-02-22T17:43:54.416Z,11.05
2023-02-22T17:46:21.313Z,10.99
2023-02-22T17:48:54.081Z,10.86
2023-02-22T17:51:22.881Z,10.74
2023-02-22T17:53:49.474Z,10.62
2023-02-22T17:56:18.912Z,10.62
2023-02-22T17:58:46.747Z,10.54
2023-02-22T18:01:27.124Z,10.44
2023-02-22T18:03:59.676Z,10.37
2023-02-22T18:06:29.977Z,10.34
2023-02-22T18:08:59.158Z,10.31
2023-02-22T18:11:28.163Z,10.16
2023-02-22T18:13:56.637Z,10.07
2023-02-22T18:16:25.979Z,10.04
2023-02-22T18:18:52.867Z,9.91
2023-02-22T18:21:19.503Z,9.86
2023-02-22T18:23:46.346Z,9.77
2023-02-22T18:26:21.354Z,9.76
2023-02-22T18:28:48.775Z,9.73
2023-02-22T18:31:18.195Z,9.65
2023-02-22T18:33:46.354Z,9.51
2023-02-22T18:36:14.357Z,9.41
2023-02-22T18:38:44.800Z,9.47
2023-02-22T18:41:13.685Z,9.40
2023-02-22T18:43:41.502Z,9.38
2023-02-22T18:46:13.790Z,9.38
2023-02-22T18:48:40.614Z,9.34
2023-02-22T18:51:13.569Z,9.30
2023-02-22T18:53:46.653Z,9.23
2023-02-22T18:56:22.007Z,9.20
2023-02-22T18:58:56.272Z,9.26
2023-02-22T19:01:23.096Z,9.19
2023-02-22T19:03:50.164Z,9.21
2023-02-22T19:06:18.710Z,9.25
2023-02-22T19:08:47.166Z,9.21
2023-02-22T19:11:18.007Z,9.16
2023-02-22T19:13:49.247Z,9.16
2023-02-22T19:16:21.860Z,9.18
2023-02-22T19:18:50.876Z,9.14
2023-02-22T19:21:17.964Z,9.14
2023-02-22T19:23:48.650Z,9.15
2023-02-22T19:26:19.741Z,9.01
2023-02-22T19:28:48.214Z,8.97
2023-02-22T19:31:18.408Z,8.99
2023-02-22T19:33:47.643Z,8.95
2023-02-22T19:36:15.205Z,8.89
2023-02-22T19:38:42.901Z,8.88
2023-02-22T19:41:12.488Z,8.84
2023-02-22T19:43:39.491Z,8.79
2023-02-22T19:46:07.480Z,8.79
2023-02-22T19:48:34.706Z,8.76
2023-02-22T19:51:14.215Z,8.69
2023-02-22T19:53:41.966Z,8.64
2023-02-22T19:56:10.525Z,8.64
2023-02-22T19:58:41.291Z,8.60
2023-02-22T20:01:15.988Z,8.60
2023-02-22T20:03:42.977Z,8.53
2023-02-22T20:06:11.535Z,8.44
2023-02-22T20:08:42.173Z,8.43
2023-02-22T20:11:10.539Z,8.40
2023-02-22T20:13:38.655Z,8.38
2023-02-22T20:16:05.887Z,8.36
2023-02-22T20:18:32.707Z,8.35
2023-02-22T20:20:59.332Z,8.35
2023-02-22T20:23:26.164Z,8.34
2023-02-22T20:25:55.078Z,8.27
2023-02-22T20:28:22.755Z,8.26
2023-02-22T20:30:51.576Z,8.24
2023-02-22T20:33:21.772Z,8.16
2023-02-22T20:35:48.461Z,8.16
2023-02-22T20:38:15.225Z,8.17
2023-02-22T20:40:42.604Z,7.97
2023-02-22T20:43:10.095Z,7.95
2023-02-22T20:45:38.339Z,7.89
2023-02-22T20:48:05.776Z,7.86
2023-02-22T20:50:34.592Z,7.81
2023-02-22T20:53:01.255Z,7.81
2023-02-22T20:55:27.786Z,7.79
2023-02-22T20:57:54.465Z,7.83
2023-02-22T21:00:21.108Z,7.81
2023-02-22T21:02:47.793Z,7.75
2023-02-22T21:05:14.700Z,7.76
2023-02-22T21:07:41.318Z,7.70
2023-02-22T21:10:08.254Z,7.64
2023-02-22T21:12:35.270Z,7.63
2023-02-22T21:15:01.965Z,7.66
2023-02-22T21:17:31.381Z,7.64
2023-02-22T21:19:58.588Z,7.60
2023-02-22T21:22:25.622Z,7.57
2023-02-22T21:24:53.308Z,7.56
2023-02-22T21:27:19.949Z,7.55
2023-02-22T21:29:46.784Z,7.52
2023-02-22T21:32:13.906Z,7.50
2023-02-22T21:34:40.982Z,7.50
2023-02-22T21:37:08.374Z,7.47
2023-02-22T21:39:35.561Z,7.46
2023-02-22T21:42:02.763Z,7.50
2023-02-22T21:44:29.970Z,7.56
2023-02-22T21:46:57.193Z,7.59
2023-02-22T21:49:23.972Z,7.63
2023-02-22T21:51:52.524Z,7.65
2023-02-22T21:54:19.622Z,7.68
2023-02-22T21:56:46.350Z,7.64
2023-02-22T21:59:22.556Z,7.64
2023-02-22T22:01:56.454Z,7.63
2023-02-22T22:04:27.611Z,7.67
2023-02-22T22:06:56.617Z,7.69
2023-02-22T22:09:24.276Z,7.70
2023-02-22T22:12:00.280Z,7.65
2023-02-22T22:14:28.149Z,7.63
2023-02-22T22:16:59.733Z,7.61
2023-02-22T22:19:30.712Z,7.55
2023-02-22T22:21:58.201Z,7.56
2023-02-22T22:24:25.381Z,7.56
2023-02-22T22:26:55.502Z,7.58
2023-02-22T22:29:24.501Z,7.53
2023-02-22T22:31:51.913Z,7.52
2023-02-22T22:34:19.565Z,7.52
2023-02-22T22:36:46.613Z,7.52
2023-02-22T22:39:13.301Z,7.49
2023-02-22T22:41:44.277Z,7.42
2023-02-22T22:44:15.492Z,7.43
2023-02-22T22:46:43.435Z,7.49
2023-02-22T22:49:12.203Z,7.51
2023-02-22T22:51:41.052Z,7.47
2023-02-22T22:54:09.567Z,7.45
2023-02-22T22:56:37.989Z,7.42
2023-02-22T22:59:08.397Z,7.40
2023-02-22T23:01:40.071Z,7.44
2023-02-22T23:04:10.639Z,7.46
2023-02-22T23:06:43.766Z,7.47
2023-02-22T23:09:18.627Z,7.49
2023-02-22T23:11:50.629Z,7.44
2023-02-22T23:14:24.243Z,7.38
2023-02-22T23:16:53.334Z,7.36
2023-02-22T23:19:20.359Z,7.32
2023-02-22T23:21:48.536Z,7.32
2023-02-22T23:24:17.013Z,7.33
2023-02-22T23:26:50.871Z,7.32
2023-02-22T23:29:19.778Z,7.35
2023-02-22T23:31:48.617Z,7.36
2023-02-22T23:34:21.279Z,7.35
2023-02-22T23:36:48.596Z,7.36
2023-02-22T23:39:22.071Z,7.39
2023-02-22T23:41:54.176Z,7.40
2023-02-22T23:44:21.981Z,7.40
2023-02-22T23:46:55.166Z,7.36
2023-02-22T23:49:26.444Z,7.37
2023-02-22T23:51:53.508Z,7.34
2023-02-22T23:54:21.354Z,7.34
2023-02-22T23:56:57.937Z,7.31
2023-02-22T23:59:26.762Z,7.31
